Ontario International Airport Ontario US
ICAO: KONT
IATA: ONT
Category: Large
Scheduled Services: Yes

Elevation: 944 ft
TransAlt. 18000 ft.

Airport Communications:
SOCAL APP/DEP:119.65
ATIS:124.25
CLNC DEL:118.1
GND:121.9
TWR:120.6

KONT Zoom In..

If you have problems with the map follow the link
https://www.worldairports.se/pages/airport.php?
ICAO=KONT

Runways:

(A) RW 08L length 12197 ft width 150 ft
ILS 109.70 / hdg 76

(B) RW 08R length 10200 ft width 150 ft
---- / hdg 76

(C) RW 26L length 10200 ft width 150 ft
ILS 111.35 / hdg 256

(D) RW 26R length 12197 ft width 150 ft
ILS 109.70 / hdg 256

Location; KONT
Day. 14 / Time. 20.53 Zulu
* Altimeter: 30.13
* Temperature: 18° c. 64.4°f.
* Wind from: 000° Speed 00 kn.
Dewpoint: -02° c.
Visibility: 10 Statute Miles.
Clouds: Broken 16000 ft.
Clouds: Overcast 19000 ft.

KONT 142053Z 00000KT 10SM BKN160 OVC190 18/M02 A3013 RMK AO2 SLP199 T01831017 56028


Wind - Calm.

 
 
jpsmedia.com for Web Design worldairports.se 2018   terms of use